Metar Cercanos

 

LEPA - Palma De Mallorc, Spain
Distance from station: ONO 38km
Actualización: Mon, 14-Jun-2021 2:00pm CEST
Despejado
Despejado
 Viento del SO
Viento: SO 17 km/h
Temperatura: 30°C
Indice Calor: 31°C
Rocío: 17°C
Humedad: 46%
Barómetro: 1018 hPa
Resumen: Despejado
Visibility: greater than 10 km
2021/06/14 12:00 LEPA 141200Z 23009KT CAVOK 30/17 Q1018 NOSIG
LEMH - Mahon/Menorca Is, Spain
Distance from station: ENE 105km
Actualización: Mon, 14-Jun-2021 2:00pm CEST
Despejado
Despejado
 Viento del OSO
Viento: OSO 19 km/h
Temperatura: 28°C
Indice Calor: 29°C
Rocío: 20°C
Humedad: 62%
Barómetro: 1019 hPa
Resumen: Despejado
Visibility: greater than 10 km
2021/06/14 12:00 LEMH 141200Z 24010KT 210V290 CAVOK 28/20 Q1019
 
LEIB - Ibiza/Es Codola, Spain
Distance from station: OSO 165km
Actualización: Mon, 14-Jun-2021 2:00pm CEST
Despejado
Despejado
 Viento del E
Viento: E 19 km/h
Temperatura: 28°C
Indice Calor: 28°C
Rocío: 17°C
Humedad: 51%
Barómetro: 1018 hPa
Resumen: Despejado
Visibility: greater than 10 km
2021/06/14 12:00 LEIB 141200Z 08010KT 040V100 CAVOK 28/17 Q1018 NOSIG
LEBL - Barcelona Airpor, Spain
Distance from station: NNO 225km
Actualización: Mon, 14-Jun-2021 2:00pm CEST
Despejado
Despejado
 Viento del S
Viento: S 13 km/h
Temperatura: 28°C
Indice Calor: 29°C
Rocío: 19°C
Humedad: 58%
Barómetro: 1018 hPa
Resumen: Despejado
Visibility: greater than 10 km
2021/06/14 12:00 LEBL 141200Z 18007KT 150V240 CAVOK 28/19 Q1018 NOSIG
 
LEVC - Valencia (civ/Mi, Spain
Distance from station: NO 188km
Actualización: Mon, 14-Jun-2021 2:00pm CEST
Despejado
Despejado
 Viento del SE
Viento: SE 17 km/h
Temperatura: 31°C
Rocío: 12°C
Humedad: 31%
Barómetro: 1018 hPa
Resumen: Despejado
Visibility: greater than 10 km
2021/06/14 12:00 LEVC 141200Z 13009KT 090V170 CAVOK 31/12 Q1018 NOSIG
LEGE - Gerona/Costa Bra, Spain
Distance from station: N 276km
Actualización: Mon, 14-Jun-2021 2:00pm CEST
Few Clouds
Few Clouds
 Viento del SSO
Viento: SSO 24 km/h
Temperatura: 33°C
Rocío: 15°C
Humedad: 34%
Barómetro: 1017 hPa
Clouds: Few Clouds
Visibility: 10 km
Cloud details: Few Clouds 914 m
2021/06/14 12:00 LEGE 141200Z 20013KT 170V230 9999 FEW030 33/15 Q1017
 
LEAL - Alicante/El Alte, Spain
Distance from station: OSO 344km
Actualización: Mon, 14-Jun-2021 2:00pm CEST
Despejado
Despejado
 Viento del E
Viento: E 17 km/h
Temperatura: 28°C
Indice Calor: 28°C
Rocío: 16°C
Humedad: 48%
Barómetro: 1019 hPa
Resumen: Despejado
Visibility: greater than 10 km
2021/06/14 12:00 LEAL 141200Z 08009KT 050V110 CAVOK 28/16 Q1019 NOSIG
LEAM - Almeria Airport, Spain
Distance from station: SSO 56km
Actualización: Mon, 14-Jun-2021 2:00pm CEST
Despejado
Despejado
 Viento del SSO
Viento: SSO 9 km/h
Temperatura: 27°C
Indice Calor: 28°C
Rocío: 16°C
Humedad: 51%
Barómetro: 1017 hPa
Resumen: Despejado
Visibility: greater than 10 km
2021/06/14 12:00 LEAM 141200Z 20005KT 150V250 CAVOK 27/16 Q1017
 
LEZG - Zaragoza (mil/Ci, Spain
Distance from station: NO 431km
Actualización: Mon, 14-Jun-2021 2:00pm CEST
Despejado
Despejado
 Viento del NO
Viento: NO 7 km/h
Temperatura: 32°C
Rocío: 14°C
Humedad: 33%
Barómetro: 1018 hPa
Resumen: Despejado
Visibility: greater than 10 km
2021/06/14 12:00 LEZG 141200Z 32004KT 220V030 CAVOK 32/14 Q1018
LEMD - Madrid/Barajas, Spain
Distance from station: ONO 234km
Actualización: Mon, 14-Jun-2021 2:00pm CEST
Parcialmente nuboso
Parcialmente nuboso
 Viento del S
Viento: S 9 km/h
Temperatura: 32°C
Rocío: 11°C
Humedad: 27%
Barómetro: 1020 hPa
Clouds: Parcialmente nuboso
Visibility: 10 km
Cloud details: Parcialmente nuboso 2134 m
2021/06/14 12:00 LEMD 141200Z 17005KT 120V210 9999 SCT070 32/11 Q1020 NOSIG
 
LEGR - Granada Airport, Spain
Distance from station: OSO 62km
Actualización: Mon, 14-Jun-2021 2:00pm CEST
Few Clouds
Few Clouds
 Viento del varies
Viento: varies 6 km/h
Temperatura: 32°C
Rocío: 10°C
Humedad: 26%
Barómetro: 1019 hPa
Clouds: Few Clouds
Visibility: 10 km
Cloud details: Few Clouds 2438 m
2021/06/14 12:00 LEGR 141200Z VRB03KT 9999 FEW080 32/10 Q1019
LEMG - Malaga (civ/Mil), Spain
Distance from station: OSO 227km
Actualización: Mon, 14-Jun-2021 2:00pm CEST
Despejado
Despejado
 Viento del SE
Viento: SE 15 km/h
Temperatura: 30°C
Indice Calor: 29°C
Rocío: 15°C
Humedad: 40%
Barómetro: 1017 hPa
Resumen: Despejado
Visibility: greater than 10 km
2021/06/14 12:00 LEMG 141200Z 14008KT 100V190 CAVOK 30/15 Q1017 NOSIG
 
LEZL - Sevilla (civ/Mil, Spain
Distance from station: S 318km
Actualización: Mon, 14-Jun-2021 2:00pm CEST
Despejado
Despejado
 Viento del N
Viento: N 4 km/h
Temperatura: 31°C
Rocío: 14°C
Humedad: 35%
Barómetro: 1017 hPa
Resumen: Despejado
Visibility: greater than 10 km
2021/06/14 12:00 LEZL 141200Z 01002KT CAVOK 31/14 Q1017 NOSIG
LEVT - Vitoria, Spain
Distance from station: NO 226km
Actualización: Mon, 14-Jun-2021 2:00pm CEST
Parcialmente nuboso
Parcialmente nuboso
 Viento del NE
Viento: NE 17 km/h
Temperatura: 27°C
Indice Calor: 28°C
Rocío: 17°C
Humedad: 54%
Barómetro: 1022 hPa
Clouds: Parcialmente nuboso
Visibility: 10 km
Cloud details: Few Clouds 914 m
Parcialmente nuboso 1372 m
2021/06/14 12:00 LEVT 141200Z 04009KT 360V090 9999 FEW030 SCT045 27/17 Q1022
 
LEBB - Bilbao/Sondica, Spain
Distance from station: NNO 235km
Actualización: Mon, 14-Jun-2021 2:00pm CEST
Few Clouds
Few Clouds
 Viento del ONO
Viento: ONO 26 km/h
Temperatura: 26°C
Rocío: 19°C
Humedad: 65%
Barómetro: 1021 hPa
Clouds: Few Clouds
Visibility: 10 km
Cloud details: Few Clouds 1158 m
2021/06/14 12:00 LEBB 141200Z 30014KT 9999 FEW038 26/19 Q1021 NOSIG
LESO - San Sebastian/Fu, Spain
Distance from station: N 231km
Actualización: Mon, 14-Jun-2021 2:00pm CEST
Despejado
Despejado
 Viento del NE
Viento: NE 13 km/h
Temperatura: 25°C
Rocío: 20°C
Humedad: 74%
Barómetro: 1020 hPa
Resumen: Despejado
Visibility: greater than 10 km
2021/06/14 12:00 LESO 141200Z 04007KT 360V060 CAVOK 25/20 Q1020
 
LEVD - Valladolid(Mil/C, Spain
Distance from station: ONO 239km
Actualización: Mon, 14-Jun-2021 2:00pm CEST
Few Clouds
Few Clouds
 Viento del NE
Viento: NE 17 km/h
Temperatura: 26°C
Rocío: 16°C
Humedad: 54%
Barómetro: 1023 hPa
Clouds: Few Clouds
Visibility: 10 km
Cloud details: Few Clouds 1372 m
2021/06/14 12:00 LEVD 141200Z 04009KT 360V070 9999 FEW045TCU 26/16 Q1023 RESHRA
LESA - Salamanca (civ/M, Spain
Distance from station: ONO 349km
Actualización: Mon, 14-Jun-2021 2:00pm CEST
Parcialmente nuboso
Parcialmente nuboso
 Viento del NE
Viento: NE 13 km/h
Temperatura: 28°C
Rocío: 10°C
Humedad: 32%
Barómetro: 1022 hPa
Clouds: Parcialmente nuboso
Visibility: 10 km
Cloud details: Parcialmente nuboso 914 m
2021/06/14 12:00 LESA 141200Z 05007KT 340V080 9999 SCT030CB 28/10 Q1022
 
LEXJ - Santander/Paraya, Spain
Distance from station: NNO 247km
Actualización: Mon, 14-Jun-2021 2:00pm CEST
Parcialmente nuboso
Parcialmente nuboso
 Viento del ENE
Viento: ENE 6 km/h
Temperatura: 21°C
Rocío: 18°C
Humedad: 83%
Barómetro: 1021 hPa
Clouds: Parcialmente nuboso
Visibility: 10 km
Cloud details: Few Clouds 1219 m
Parcialmente nuboso 2134 m
2021/06/14 12:00 LEXJ 141200Z 06003KT 010V110 9999 FEW040TCU SCT070 21/18 Q1021
LEAS - Asturias/Aviles, Spain
Distance from station: NO 214km
Actualización: Mon, 14-Jun-2021 2:00pm CEST
Few Clouds
Few Clouds
 Viento del NNE
Viento: NNE 9 km/h
Temperatura: 22°C
Rocío: 18°C
Humedad: 78%
Barómetro: 1021 hPa
Clouds: Few Clouds
Visibility: 10 km
Cloud details: Few Clouds 610 m
2021/06/14 12:00 LEAS 141200Z 03005KT 340V090 9999 FEW020 22/18 Q1021 NOSIG
 
LECO - La Coruna/Alvedr, Spain
Distance from station: ONO 222km
Actualización: Mon, 14-Jun-2021 2:00pm CEST
Few Clouds
Few Clouds
 Viento del N
Viento: N 11 km/h
Temperatura: 24°C
Rocío: 19°C
Humedad: 74%
Barómetro: 1021 hPa
Clouds: Few Clouds
Visibility: 10 km
Cloud details: Few Clouds 762 m
2021/06/14 12:00 LECO 141200Z 35006KT 320V050 9999 FEW025 24/19 Q1021 NOSIG
LEVX - Vigo/Peinador, Spain
Distance from station: O 214km
Actualización: Mon, 14-Jun-2021 2:00pm CEST
Despejado
Despejado
 Viento del varies
Viento: varies 4 km/h
Temperatura: 31°C
Indice Calor: 31°C
Rocío: 16°C
Humedad: 40%
Barómetro: 1020 hPa
Resumen: Despejado
Visibility: greater than 10 km
2021/06/14 12:00 LEVX 141200Z VRB02KT CAVOK 31/16 Q1020 NOSIG